Time;durP1;ratioP1;P1;durP2;ratioP2;P2;SDS_P1;SDS_P2;PMS_P1;PMS_P2;Temp;Humidity;BMP_temperature;BMP_pressure;BME280_temperature;BME280_humidity;BME280_pressure;Samples;Min_cycle;Max_cycle;Signal;HPM_P1;HPM_P2
2024/04/14 00:02:26;;;;;;;;;;;;;;;24.14;43.68;94972.28;5352893;26;7035;-61
2024/04/14 00:04:56;;;;;;;;;;;;;;;24.17;44.48;94978.81;5448808;26;9484;-61
2024/04/14 00:07:22;;;;;;;;;;;;;;;24.16;44.41;94978.09;5449568;26;7082;-61
2024/04/14 00:10:13;;;;;;;;;;;;;;;24.15;43.88;94978.56;5448875;26;6943;-61
2024/04/14 00:12:41;;;;;;;;;;;;;;;24.10;44.40;94976.53;5445455;26;7411;-61
2024/04/14 00:15:19;;;;;;;;;;;;;;;24.12;43.88;94974.78;5422742;26;7916;-61
2024/04/14 00:17:46;;;;;;;;;;;;;;;24.13;44.03;94979.06;5448370;26;7121;-61
2024/04/14 00:20:26;;;;;;;;;;;;;;;24.10;43.98;94969.03;5417185;26;8008;-61
2024/04/14 00:23:01;;;;;;;;;;;;;;;24.12;44.55;94971.31;5413580;26;7063;-58
2024/04/14 00:25:28;;;;;;;;;;;;;;;24.10;44.06;94966.28;5412415;26;7076;-59
2024/04/14 00:28:23;;;;;;;;;;;;;;;24.10;43.91;94969.03;5417574;26;7070;-59
2024/04/14 00:30:58;;;;;;;;;;;;;;;24.06;43.94;94956.75;5365212;26;7125;-58
2024/04/14 00:33:25;;;;;;;;;;;;;;;24.08;44.05;94962.50;5378301;26;7333;-59
2024/04/14 00:36:11;;;;;;;;;;;;;;;24.02;44.25;94951.44;5369797;26;9134;-59
2024/04/14 00:38:38;;;;;;;;;;;;;;;24.05;43.93;94956.00;5377812;26;7301;-59
2024/04/14 00:41:06;;;;;;;;;;;;;;;24.03;44.09;94952.97;5340330;26;7724;-58
2024/04/14 00:43:34;;;;;;;;;;;;;;;24.03;44.38;94955.72;5360308;26;7396;-59
2024/04/14 00:46:01;;;;;;;;;;;;;;;24.04;44.06;94951.72;5370552;26;7362;-59
2024/04/14 00:48:28;;;;;;;;;;;;;;;24.05;43.92;94958.75;5359314;26;8094;-58
2024/04/14 00:50:57;;;;;;;;;;;;;;;24.07;43.90;94950.00;5367110;26;8999;-58
2024/04/14 00:53:24;;;;;;;;;;;;;;;23.99;44.04;94946.91;5359842;26;7363;-58
2024/04/14 00:55:53;;;;;;;;;;;;;;;24.02;43.94;94948.69;5375892;26;7219;-59
2024/04/14 00:58:33;;;;;;;;;;;;;;;24.04;43.68;94948.97;5381214;26;7124;-59
2024/04/14 01:01:10;;;;;;;;;;;;;;;24.03;43.81;94955.72;5384989;26;7733;-59
2024/04/14 01:03:42;;;;;;;;;;;;;;;24.03;44.02;94952.97;5373430;26;7044;-59
2024/04/14 01:06:40;;;;;;;;;;;;;;;24.08;44.24;94952.28;5374924;26;7669;-58
2024/04/14 01:09:11;;;;;;;;;;;;;;;24.09;43.87;94942.78;5271230;27;8418;-58
2024/04/14 01:11:38;;;;;;;;;;;;;;;24.06;44.05;94935.50;5270537;27;8686;-59
2024/04/14 01:14:09;;;;;;;;;;;;;;;24.09;43.84;94945.53;5269073;27;7252;-59
2024/04/14 01:16:37;;;;;;;;;;;;;;;24.10;44.03;94947.03;5254988;27;7365;-59
2024/04/14 01:19:20;;;;;;;;;;;;;;;24.02;44.21;94928.69;5271130;27;7253;-59
2024/04/14 01:21:56;;;;;;;;;;;;;;;24.09;44.04;94945.53;5270973;27;8880;-59
2024/04/14 01:24:24;;;;;;;;;;;;;;;24.11;44.08;94942.31;5269913;27;9626;-59
2024/04/14 01:26:53;;;;;;;;;;;;;;;24.08;43.91;94937.75;5289824;27;7626;-59
2024/04/14 01:29:20;;;;;;;;;;;;;;;24.10;44.02;94944.28;5278058;27;7044;-59
2024/04/14 01:32:05;;;;;;;;;;;;;;;24.06;43.71;94935.50;5280607;27;7893;-59
2024/04/14 01:34:54;;;;;;;;;;;;;;;24.07;43.94;94930.78;5270894;27;7039;-62
2024/04/14 01:37:22;;;;;;;;;;;;;;;23.98;44.17;94923.44;5295659;27;7389;-62
2024/04/14 01:40:18;;;;;;;;;;;;;;;24.01;44.06;94930.72;5304600;27;7649;-62
2024/04/14 01:42:44;;;;;;;;;;;;;;;23.96;43.68;94925.91;5170459;27;8798;-62
2024/04/14 01:45:10;;;;;;;;;;;;;;;23.97;43.84;94921.91;5261969;26;7139;-62
2024/04/14 01:47:40;;;;;;;;;;;;;;;23.96;44.10;94923.19;5309383;26;7352;-62
2024/04/14 01:50:11;;;;;;;;;;;;;;;23.95;44.15;94924.41;5309623;26;7968;-62
2024/04/14 01:52:44;;;;;;;;;;;;;;;23.90;43.63;94914.13;5330403;26;7089;-62
2024/04/14 01:55:31;;;;;;;;;;;;;;;23.96;43.88;94925.91;5326380;26;9445;-61
2024/04/14 01:58:14;;;;;;;;;;;;;;;23.90;43.70;94914.13;5304618;27;7165;-61
2024/04/14 02:00:41;;;;;;;;;;;;;;;23.92;44.11;94920.63;5324181;26;7693;-62
2024/04/14 02:03:18;;;;;;;;;;;;;;;23.92;44.01;94931.63;5319907;26;7125;-61
2024/04/14 02:05:55;;;;;;;;;;;;;;;23.84;43.89;94916.81;5365483;26;8068;-62
2024/04/14 02:08:39;;;;;;;;;;;;;;;23.89;43.71;94926.34;5296705;27;7049;-62
2024/04/14 02:11:14;;;;;;;;;;;;;;;23.81;43.81;94914.31;5351761;26;8039;-61
2024/04/14 02:14:13;;;;;;;;;;;;;;;23.90;44.09;94930.63;5342189;26;7508;-62
2024/04/14 02:16:47;;;;;;;;;;;;;;;23.88;43.65;94936.59;5217722;27;7364;-62
2024/04/14 02:19:27;;;;;;;;;;;;;;;23.87;43.73;94943.34;5237169;27;7044;-61
2024/04/14 02:22:26;;;;;;;;;;;;;;;23.88;43.57;94942.06;5288709;27;9105;-61
2024/04/14 02:25:12;;;;;;;;;;;;;;;23.88;43.80;94942.06;5292087;27;7316;-62
2024/04/14 02:27:53;;;;;;;;;;;;;;;23.81;43.67;94931.53;5242343;27;7475;-61
2024/04/14 02:30:35;;;;;;;;;;;;;;;23.84;43.87;94929.78;5278863;27;7314;-61
2024/04/14 02:33:06;;;;;;;;;;;;;;;23.81;43.65;94925.28;5277231;27;7750;-62
2024/04/14 02:36:04;;;;;;;;;;;;;;;23.86;43.51;94932.81;5303303;27;7447;-61
2024/04/14 02:38:49;;;;;;;;;;;;;;;23.85;43.29;94917.59;5236287;27;7988;-61
2024/04/14 02:41:25;;;;;;;;;;;;;;;23.86;43.56;94928.06;5217860;27;9152;-61
2024/04/14 02:43:51;;;;;;;;;;;;;;;23.83;43.65;94920.06;5211336;27;7626;-61
2024/04/14 02:46:17;;;;;;;;;;;;;;;23.83;43.38;94922.81;5239232;27;8050;-61
2024/04/14 02:49:12;;;;;;;;;;;;;;;23.82;43.52;94921.28;5239296;27;7365;-61
2024/04/14 02:52:08;;;;;;;;;;;;;;;23.81;43.56;94928.03;5239480;27;7119;-61
2024/04/14 02:54:54;;;;;;;;;;;;;;;23.81;43.76;94925.28;5272517;27;7062;-61
2024/04/14 02:58:01;;;;;;;;;;;;;;;23.82;43.20;94926.78;5267459;27;9208;-61
2024/04/14 03:00:37;;;;;;;;;;;;;;;23.80;43.24;94932.78;5249828;27;7216;-61
2024/04/14 03:03:29;;;;;;;;;;;;;;;23.79;43.53;94928.50;5272884;27;7112;-61
2024/04/14 03:06:24;;;;;;;;;;;;;;;23.81;43.51;94933.53;5272596;27;9204;-61
2024/04/14 03:09:38;;;;;;;;;;;;;;;23.78;43.19;94927.00;5173261;27;7252;-61
2024/04/14 03:12:17;;;;;;;;;;;;;;;23.73;43.37;94918.72;5013821;28;7563;-61
2024/04/14 03:15:09;;;;;;;;;;;;;;;23.77;43.35;94930.97;5014908;28;8132;-61
2024/04/14 03:17:36;;;;;;;;;;;;;;;23.76;43.56;94923.25;5014881;28;7172;-61
2024/04/14 03:20:05;;;;;;;;;;;;;;;23.79;43.56;94922.28;5015470;28;6959;-61
2024/04/14 03:22:41;;;;;;;;;;;;;;;23.73;42.99;94918.72;4995766;28;7704;-61
2024/04/14 03:25:16;;;;;;;;;;;;;;;23.78;43.35;94929.75;5014970;28;7690;-61
2024/04/14 03:27:46;;;;;;;;;;;;;;;23.71;43.33;94904.72;4990192;28;7354;-61
2024/04/14 03:30:36;;;;;;;;;;;;;;;23.74;43.38;94914.72;5024944;28;7671;-61
2024/04/14 03:33:04;;;;;;;;;;;;;;;23.76;43.72;94913.00;5120484;27;7053;-61
2024/04/14 03:36:16;;;;;;;;;;;;;;;23.76;42.87;94899.28;5108511;28;7077;-61
2024/04/14 03:38:57;;;;;;;;;;;;;;;23.77;43.25;94908.28;5108524;28;7707;-61
2024/04/14 03:41:33;;;;;;;;;;;;;;;23.73;43.29;94902.22;5104188;27;10032;-61
2024/04/14 03:43:59;;;;;;;;;;;;;;;23.69;43.18;94896.19;5107541;28;7386;-61
2024/04/14 03:46:30;;;;;;;;;;;;;;;23.64;42.88;94894.19;5227843;27;9008;-61
2024/04/14 03:48:56;;;;;;;;;;;;;;;23.68;43.01;94894.72;5335599;26;7062;-61
2024/04/14 03:51:22;;;;;;;;;;;;;;;23.66;43.08;94888.97;5447057;26;7058;-61
2024/04/14 03:54:00;;;;;;;;;;;;;;;23.70;43.15;94889.50;5428102;26;8953;-63
2024/04/14 03:56:36;;;;;;;;;;;;;;;23.73;43.24;94894.75;5389465;26;7045;-63
2024/04/14 03:59:11;;;;;;;;;;;;;;;23.64;42.90;94881.19;5447771;26;7430;-63
2024/04/14 04:01:48;;;;;;;;;;;;;;;23.72;43.32;94889.75;5434913;26;9033;-63
2024/04/14 04:04:24;;;;;;;;;;;;;;;23.74;43.24;94892.75;5453797;26;7057;-63
2024/04/14 04:07:26;;;;;;;;;;;;;;;23.73;43.02;94891.25;5449357;26;7389;-63
2024/04/14 04:10:30;;;;;;;;;;;;;;;23.72;43.06;94895.25;5372876;26;9027;-63
2024/04/14 04:13:11;;;;;;;;;;;;;;;23.67;42.84;94893.19;5306019;27;7765;-63
2024/04/14 04:15:39;;;;;;;;;;;;;;;23.69;43.10;94890.72;5304206;27;7232;-63
2024/04/14 04:18:16;;;;;;;;;;;;;;;23.68;43.28;94887.25;5301066;26;7779;-63
2024/04/14 04:21:05;;;;;;;;;;;;;;;23.65;43.08;94890.19;5305798;26;7038;-63
2024/04/14 04:23:32;;;;;;;;;;;;;;;23.69;42.97;94896.97;5304583;27;7545;-63
2024/04/14 04:26:02;;;;;;;;;;;;;;;23.67;42.86;94893.19;5302809;27;7021;-63
2024/04/14 04:28:31;;;;;;;;;;;;;;;23.58;42.94;94896.88;5279754;26;7051;-63
2024/04/14 04:31:12;;;;;;;;;;;;;;;23.67;43.20;94899.44;5296327;26;9082;-63
2024/04/14 04:33:41;;;;;;;;;;;;;;;23.71;43.35;94899.97;5301072;27;9719;-63
2024/04/14 04:36:13;;;;;;;;;;;;;;;23.71;43.28;94905.47;5294863;27;7013;-63
2024/04/14 04:38:44;;;;;;;;;;;;;;;23.73;43.15;94892.00;5281120;27;7685;-63
2024/04/14 04:41:13;;;;;;;;;;;;;;;23.71;43.26;94888.22;5301781;27;7203;-63
2024/04/14 04:43:40;;;;;;;;;;;;;;;23.76;43.06;94895.78;5286755;26;9477;-63
2024/04/14 04:46:08;;;;;;;;;;;;;;;23.73;43.33;94894.00;5351010;26;8495;-63
2024/04/14 04:48:34;;;;;;;;;;;;;;;23.76;42.61;94904.00;5427002;26;7757;-63
2024/04/14 04:51:07;;;;;;;;;;;;;;;23.70;43.21;94887.50;5447582;26;8624;-63
2024/04/14 04:53:42;;;;;;;;;;;;;;;23.80;42.86;94901.81;5448934;26;7059;-63
2024/04/14 04:56:12;;;;;;;;;;;;;;;23.72;42.88;94887.00;5431321;26;7152;-63
2024/04/14 04:58:38;;;;;;;;;;;;;;;23.69;42.74;94896.97;5428141;26;7954;-62
2024/04/14 05:01:09;;;;;;;;;;;;;;;23.78;43.02;94907.78;5426810;26;7058;-64
2024/04/14 05:04:02;;;;;;;;;;;;;;;23.81;42.92;94914.31;5435279;26;7197;-61
2024/04/14 05:06:32;;;;;;;;;;;;;;;23.75;42.99;94905.28;5434200;26;7339;-61
2024/04/14 05:09:00;;;;;;;;;;;;;;;23.81;43.10;94923.31;5427173;26;7247;-61
2024/04/14 05:11:27;;;;;;;;;;;;;;;23.80;42.68;94918.28;5414373;26;7516;-61
2024/04/14 05:14:11;;;;;;;;;;;;;;;23.78;42.88;94915.25;5447488;26;7223;-61
2024/04/14 05:16:45;;;;;;;;;;;;;;;23.77;42.94;94919.28;5445546;26;9680;-61
2024/04/14 05:19:22;;;;;;;;;;;;;;;23.80;42.76;94918.28;5440985;26;9457;-61
2024/04/14 05:21:59;;;;;;;;;;;;;;;23.77;43.06;94917.25;5412260;26;7736;-61
2024/04/14 05:24:25;;;;;;;;;;;;;;;23.77;42.80;94917.25;5412464;26;7300;-61
2024/04/14 05:27:03;;;;;;;;;;;;;;;23.80;42.82;94919.03;5430655;26;9046;-61
2024/04/14 05:30:15;;;;;;;;;;;;;;;23.79;42.84;94914.78;5448401;26;8996;-61
2024/04/14 05:32:59;;;;;;;;;;;;;;;23.79;42.77;94917.53;5360070;26;6991;-61
2024/04/14 05:35:36;;;;;;;;;;;;;;;23.74;42.72;94914.72;5314982;26;7381;-61
2024/04/14 05:38:17;;;;;;;;;;;;;;;23.78;43.31;94915.25;5310544;26;7118;-61
2024/04/14 05:40:45;;;;;;;;;;;;;;;23.76;42.98;94918.50;5343617;26;8884;-61
2024/04/14 05:43:13;;;;;;;;;;;;;;;23.78;43.34;94923.50;5336859;26;8065;-61
2024/04/14 05:45:42;;;;;;;;;;;;;;;23.75;42.92;94921.75;5365890;26;7080;-61
2024/04/14 05:48:10;;;;;;;;;;;;;;;23.71;43.01;94912.94;5351694;26;7598;-61
2024/04/14 05:50:39;;;;;;;;;;;;;;;23.71;43.39;94918.44;5372534;26;7344;-61
2024/04/14 05:53:08;;;;;;;;;;;;;;;23.70;42.62;94919.69;5343521;26;7050;-61
2024/04/14 05:55:46;;;;;;;;;;;;;;;23.73;42.88;94924.19;5342954;26;9488;-60
2024/04/14 05:58:36;;;;;;;;;;;;;;;23.78;42.93;94929.75;5340129;26;7147;-61
2024/04/14 06:01:07;;;;;;;;;;;;;;;23.77;43.05;94936.47;5364766;26;7374;-61
2024/04/14 06:03:58;;;;;;;;;;;;;;;23.77;42.56;94930.25;5369925;26;7220;-63
2024/04/14 06:06:38;;;;;;;;;;;;;;;23.70;43.20;94922.44;5343298;26;7663;-61
2024/04/14 06:09:04;;;;;;;;;;;;;;;23.67;43.33;94924.16;5360074;26;7041;-61
2024/04/14 06:11:43;;;;;;;;;;;;;;;23.75;43.12;94936.22;5381144;26;7367;-61
2024/04/14 06:14:22;;;;;;;;;;;;;;;23.73;43.25;94932.44;5397849;26;7080;-61
2024/04/14 06:16:57;;;;;;;;;;;;;;;23.72;43.23;94922.72;5415765;26;7061;-61
2024/04/14 06:19:27;;;;;;;;;;;;;;;23.81;43.20;94936.28;5450323;26;7352;-60
2024/04/14 06:22:05;;;;;;;;;;;;;;;23.78;43.18;94926.25;5444114;26;7351;-60
2024/04/14 06:24:47;;;;;;;;;;;;;;;23.78;43.38;94924.28;5414579;26;9147;-63
2024/04/14 06:27:15;;;;;;;;;;;;;;;23.80;43.27;94930.03;5396342;26;7151;-60
2024/04/14 06:29:47;;;;;;;;;;;;;;;23.79;43.59;94934.00;5412290;26;8006;-60
2024/04/14 06:32:14;;;;;;;;;;;;;;;23.87;43.66;94937.06;5430406;26;9195;-62
2024/04/14 06:34:43;;;;;;;;;;;;;;;23.83;43.07;94933.81;5450122;26;7918;-63
2024/04/14 06:37:15;;;;;;;;;;;;;;;23.80;43.04;94924.53;5441708;26;7756;-65
2024/04/14 06:39:46;;;;;;;;;;;;;;;23.82;43.18;94932.28;5443219;26;7025;-60
2024/04/14 06:42:25;;;;;;;;;;;;;;;23.82;42.75;94926.78;5419077;26;6897;-60
2024/04/14 06:44:52;;;;;;;;;;;;;;;23.77;43.27;94916.53;5453466;26;8957;-60
2024/04/14 06:47:18;;;;;;;;;;;;;;;23.80;43.29;94923.78;5459683;26;8032;-61
2024/04/14 06:49:46;;;;;;;;;;;;;;;23.74;42.93;94928.47;5417199;26;7319;-60
2024/04/14 06:52:22;;;;;;;;;;;;;;;23.80;43.38;94929.25;5484568;26;7039;-60
2024/04/14 06:54:49;;;;;;;;;;;;;;;23.78;42.96;94934.50;5441000;26;7389;-61
2024/04/14 06:57:19;;;;;;;;;;;;;;;23.76;42.77;94932.25;5404959;26;7120;-60
2024/04/14 06:59:58;;;;;;;;;;;;;;;23.70;43.05;94930.69;5447708;26;7421;-62
2024/04/14 07:03:16;;;;;;;;;;;;;;;23.73;42.13;94935.19;5438341;26;7086;-61
2024/04/14 07:05:49;;;;;;;;;;;;;;;23.67;42.63;94926.16;5412826;26;7606;-66
2024/04/14 07:08:32;;;;;;;;;;;;;;;23.72;43.31;94928.19;5411697;26;9342;-66
2024/04/14 07:11:18;;;;;;;;;;;;;;;23.75;42.63;94933.47;5389479;26;6989;-70
2024/04/14 07:14:04;;;;;;;;;;;;;;;23.69;42.55;94924.44;5435811;26;7012;-67
2024/04/14 07:17:16;;;;;;;;;;;;;;;23.75;42.92;94927.25;5398032;26;7068;-65
2024/04/14 07:19:55;;;;;;;;;;;;;;;23.79;42.76;94922.28;5352237;26;7407;-65
2024/04/14 07:22:36;;;;;;;;;;;;;;;23.83;42.54;94928.31;5352770;26;7136;-65
2024/04/14 07:25:11;;;;;;;;;;;;;;;23.81;42.42;94915.06;5337454;26;7404;-64
2024/04/14 07:28:09;;;;;;;;;;;;;;;23.93;42.24;94921.38;5332603;26;7443;-64
2024/04/14 07:30:37;;;;;;;;;;;;;;;23.96;42.45;94921.19;5339586;26;9388;-64
2024/04/14 07:33:06;;;;;;;;;;;;;;;23.94;42.57;94920.91;5333090;26;7758;-69
2024/04/14 07:36:17;;;;;;;;;;;;;;;24.01;42.46;94925.22;5331866;26;7186;-64
2024/04/14 07:38:43;;;;;;;;;;;;;;;23.97;42.32;94914.44;5213484;27;8598;-64
2024/04/14 07:41:22;;;;;;;;;;;;;;;24.00;42.28;94918.22;5232893;27;6975;-64
2024/04/14 07:43:48;;;;;;;;;;;;;;;24.01;41.76;94911.47;5242274;27;7021;-64
2024/04/14 07:46:17;;;;;;;;;;;;;;;24.06;41.63;94915.53;5238373;27;7078;-63
2024/04/14 07:48:47;;;;;;;;;;;;;;;23.99;41.44;94906.47;5238086;27;8747;-63
2024/04/14 07:51:17;;;;;;;;;;;;;;;24.11;41.43;94917.56;5238065;27;7071;-63
2024/04/14 07:53:43;;;;;;;;;;;;;;;24.15;41.86;94918.09;5236107;27;7082;-64
2024/04/14 07:56:11;;;;;;;;;;;;;;;24.21;42.09;94910.63;5234998;27;7182;-63
2024/04/14 07:58:46;;;;;;;;;;;;;;;24.23;40.87;94908.19;5237111;27;7122;-63
2024/04/14 08:01:13;;;;;;;;;;;;;;;24.24;41.00;94907.69;5240997;27;9022;-64
2024/04/14 08:03:39;;;;;;;;;;;;;;;24.24;39.93;94904.94;5210302;27;7235;-63
2024/04/14 08:06:45;;;;;;;;;;;;;;;24.29;40.12;94906.97;5257564;27;7145;-63
2024/04/14 08:09:20;;;;;;;;;;;;;;;24.29;40.58;94909.72;5306014;27;7172;-67
2024/04/14 08:11:56;;;;;;;;;;;;;;;24.29;40.82;94908.97;5277589;27;9201;-69
2024/04/14 08:15:03;;;;;;;;;;;;;;;24.34;40.71;94916.47;5277324;27;9130;-71
2024/04/14 08:17:42;;;;;;;;;;;;;;;24.37;40.62;94916.25;5273093;27;8993;-63
2024/04/14 08:20:29;;;;;;;;;;;;;;;24.39;40.40;94907.53;5278558;27;9442;-63
2024/04/14 08:22:57;;;;;;;;;;;;;;;24.40;40.35;94909.03;5299191;27;7048;-64
2024/04/14 08:25:24;;;;;;;;;;;;;;;24.43;40.53;94913.53;5254015;27;7099;-63
2024/04/14 08:28:05;;;;;;;;;;;;;;;24.44;40.27;94904.06;5277465;27;8617;-63
2024/04/14 08:30:40;;;;;;;;;;;;;;;24.44;40.08;94901.31;5302246;26;7314;-64
2024/04/14 08:33:15;;;;;;;;;;;;;;;24.47;40.22;94901.06;5288751;26;9055;-60
2024/04/14 08:35:41;;;;;;;;;;;;;;;24.49;40.07;94901.34;5265773;27;7319;-60
2024/04/14 08:38:09;;;;;;;;;;;;;;;24.50;40.27;94905.59;5283527;26;9087;-60
2024/04/14 08:40:35;;;;;;;;;;;;;;;24.52;39.92;94908.59;5291620;26;9083;-59
2024/04/14 08:43:02;;;;;;;;;;;;;;;24.53;39.88;94907.34;5274751;27;7244;-59
2024/04/14 08:45:32;;;;;;;;;;;;;;;24.57;39.97;94904.38;5315590;26;8626;-62
2024/04/14 08:48:02;;;;;;;;;;;;;;;24.58;40.16;94914.88;5353454;26;9081;-61
2024/04/14 08:50:29;;;;;;;;;;;;;;;24.62;39.91;94911.94;5402804;26;8699;-61
2024/04/14 08:53:02;;;;;;;;;;;;;;;24.62;39.86;94909.91;5414404;26;7372;-60
2024/04/14 08:55:49;;;;;;;;;;;;;;;24.67;39.90;94911.19;5393193;26;8530;-59
2024/04/14 08:58:20;;;;;;;;;;;;;;;24.69;39.79;94898.44;5413959;26;9036;-60
2024/04/14 09:01:10;;;;;;;;;;;;;;;24.73;39.68;94901.72;5445555;26;9110;-60
2024/04/14 09:03:36;;;;;;;;;;;;;;;24.77;39.77;94903.53;5429341;26;9064;-60
2024/04/14 09:09:49;;;;;;;;;;;;;;;24.23;40.55;94888.94;5503170;25;6791;-55
2024/04/14 09:12:17;;;;;;;;;;;;;;;24.38;40.59;94895.03;5434335;26;7418;-61
2024/04/14 09:14:50;;;;;;;;;;;;;;;24.46;40.67;94899.59;5433924;26;8149;-60
2024/04/14 09:17:18;;;;;;;;;;;;;;;24.53;40.48;94901.13;5432205;26;9099;-59
2024/04/14 09:19:58;;;;;;;;;;;;;;;24.59;40.18;94899.91;5434268;26;7352;-60
2024/04/14 09:22:26;;;;;;;;;;;;;;;24.66;40.23;94904.19;5465054;26;7131;-58
2024/04/14 09:24:59;;;;;;;;;;;;;;;24.70;39.82;94904.72;5463656;25;8574;-59
2024/04/14 09:27:28;;;;;;;;;;;;;;;24.73;40.08;94904.47;5433736;26;7037;-59
2024/04/14 09:30:23;;;;;;;;;;;;;;;24.81;39.81;94906.78;5445269;26;7920;-59
2024/04/14 09:32:51;;;;;;;;;;;;;;;24.82;39.83;94902.78;5465765;26;7153;-59
2024/04/14 09:35:33;;;;;;;;;;;;;;;24.83;39.58;94896.03;5445668;26;7146;-58
2024/04/14 09:38:17;;;;;;;;;;;;;;;24.85;39.72;94893.53;5465551;26;7399;-59
2024/04/14 09:40:46;;;;;;;;;;;;;;;24.90;39.74;94890.84;5459487;26;7393;-56
2024/04/14 09:43:30;;;;;;;;;;;;;;;24.93;39.20;94886.31;5465861;26;7230;-54
2024/04/14 09:45:57;;;;;;;;;;;;;;;25.05;39.42;94901.66;5465019;26;7260;-54
2024/04/14 09:48:45;;;;;;;;;;;;;;;25.05;39.10;94888.63;5470415;26;7321;-54
2024/04/14 09:51:19;;;;;;;;;;;;;;;25.08;39.43;94881.38;5459628;26;7361;-58
2024/04/14 09:53:47;;;;;;;;;;;;;;;25.06;39.17;94875.59;5463916;26;7386;-57
2024/04/14 09:56:13;;;;;;;;;;;;;;;25.14;39.17;94877.38;5457425;26;7436;-57
2024/04/14 09:58:49;;;;;;;;;;;;;;;25.14;39.08;94868.41;5462190;26;7110;-57
2024/04/14 10:01:46;;;;;;;;;;;;;;;25.24;39.06;94875.16;5463387;26;7672;-58
2024/04/14 10:04:14;;;;;;;;;;;;;;;25.21;38.92;94870.66;5353673;26;7174;-58
2024/04/14 10:06:43;;;;;;;;;;;;;;;25.24;39.29;94864.16;5348915;26;8906;-60
2024/04/14 10:09:12;;;;;;;;;;;;;;;25.28;38.83;94865.44;5353505;26;7774;-58
2024/04/14 10:11:41;;;;;;;;;;;;;;;25.33;39.02;94861.19;5359242;26;7371;-57
2024/04/14 10:14:12;;;;;;;;;;;;;;;25.35;39.31;94853.94;5346903;26;7364;-57
2024/04/14 10:16:38;;;;;;;;;;;;;;;25.27;39.62;94847.38;5355813;26;7343;-57
2024/04/14 10:19:33;;;;;;;;;;;;;;;25.38;39.29;94857.69;5325756;26;7647;-57
2024/04/14 10:22:12;;;;;;;;;;;;;;;25.38;39.23;94855.66;5357588;26;7393;-58
2024/04/14 10:24:49;;;;;;;;;;;;;;;25.39;39.78;94853.69;5347652;26;7991;-57
2024/04/14 10:27:25;;;;;;;;;;;;;;;25.33;39.68;94834.41;5339486;26;7170;-57
2024/04/14 10:30:24;;;;;;;;;;;;;;;25.41;39.83;94840.16;5339281;26;7177;-58
2024/04/14 10:33:10;;;;;;;;;;;;;;;25.43;39.99;94840.44;5249505;27;7571;-56
2024/04/14 10:35:36;;;;;;;;;;;;;;;25.36;40.23;94832.63;5229184;27;7368;-55
2024/04/14 10:38:39;;;;;;;;;;;;;;;25.47;39.97;94837.47;5228370;27;8987;-56
2024/04/14 10:41:16;;;;;;;;;;;;;;;25.46;40.01;94833.94;5292151;26;7483;-56
2024/04/14 10:43:47;;;;;;;;;;;;;;;25.46;39.76;94819.41;5304800;26;7351;-56
2024/04/14 10:46:25;;;;;;;;;;;;;;;25.47;39.75;94813.41;5297444;26;8843;-56
2024/04/14 10:48:56;;;;;;;;;;;;;;;25.51;39.66;94811.19;5300294;26;7383;-56
2024/04/14 10:51:23;;;;;;;;;;;;;;;25.48;39.49;94809.41;5303603;26;7648;-56
2024/04/14 10:53:53;;;;;;;;;;;;;;;25.55;39.35;94811.66;5277083;26;7400;-58
2024/04/14 10:56:19;;;;;;;;;;;;;;;25.56;39.24;94813.16;5299855;26;7068;-58
2024/04/14 10:58:47;;;;;;;;;;;;;;;25.53;39.06;94808.66;5314929;26;7350;-58
2024/04/14 11:01:28;;;;;;;;;;;;;;;25.52;38.73;94801.66;5303788;26;7357;-58
2024/04/14 11:03:59;;;;;;;;;;;;;;;25.60;38.85;94802.63;5313640;26;7295;-58
2024/04/14 11:06:26;;;;;;;;;;;;;;;25.55;39.11;94786.88;5332565;26;7360;-58
2024/04/14 11:08:58;;;;;;;;;;;;;;;25.60;38.94;94797.13;5394727;26;7288;-58
2024/04/14 11:11:24;;;;;;;;;;;;;;;25.66;39.01;94797.16;5417160;26;7246;-58
2024/04/14 11:13:55;;;;;;;;;;;;;;;25.61;38.70;94784.88;5416940;26;7163;-58
2024/04/14 11:16:24;;;;;;;;;;;;;;;25.53;38.99;94775.63;5467057;26;8335;-58
2024/04/14 11:18:50;;;;;;;;;;;;;;;25.61;38.85;94781.34;5442318;26;8582;-58
2024/04/14 11:21:19;;;;;;;;;;;;;;;25.60;38.77;94768.84;5445271;26;7826;-58
2024/04/14 11:23:49;;;;;;;;;;;;;;;25.64;38.82;94767.34;5445329;26;7174;-58
2024/04/14 11:26:16;;;;;;;;;;;;;;;25.69;39.18;94772.09;5444326;26;7669;-57
2024/04/14 11:28:42;;;;;;;;;;;;;;;25.71;39.12;94772.34;5415045;26;7108;-58
2024/04/14 11:31:11;;;;;;;;;;;;;;;25.68;39.29;94765.09;5414600;26;7772;-57
2024/04/14 11:33:41;;;;;;;;;;;;;;;25.72;39.24;94765.59;5443200;26;7300;-57
2024/04/14 11:36:13;;;;;;;;;;;;;;;25.78;39.09;94769.06;5441347;26;7190;-58
2024/04/14 11:38:44;;;;;;;;;;;;;;;25.81;38.89;94759.81;5453956;26;7071;-58
2024/04/14 11:41:12;;;;;;;;;;;;;;;25.83;38.94;94756.56;5448777;26;8993;-59
2024/04/14 11:43:42;;;;;;;;;;;;;;;25.84;38.98;94752.53;5445643;26;7928;-59
2024/04/14 11:46:09;;;;;;;;;;;;;;;25.86;38.80;94763.81;5443330;26;7592;-60
2024/04/14 11:48:37;;;;;;;;;;;;;;;25.85;38.57;94751.28;5435854;26;8170;-59
2024/04/14 11:51:04;;;;;;;;;;;;;;;25.86;39.01;94752.78;5441580;26;7142;-59
2024/04/14 11:53:34;;;;;;;;;;;;;;;25.83;38.77;94743.53;5444350;26;7093;-59
2024/04/14 11:56:01;;;;;;;;;;;;;;;25.87;38.76;94744.00;5444411;26;7238;-59
2024/04/14 11:58:28;;;;;;;;;;;;;;;25.81;38.71;94745.28;5459533;26;7160;-60
2024/04/14 12:00:57;;;;;;;;;;;;;;;25.81;38.90;94737.78;5415309;26;8515;-59
2024/04/14 12:03:33;;;;;;;;;;;;;;;25.89;38.78;94741.50;5409604;26;7048;-63
2024/04/14 12:06:00;;;;;;;;;;;;;;;25.82;38.69;94733.75;5437440;26;7010;-63
2024/04/14 12:08:28;;;;;;;;;;;;;;;25.86;38.67;94731.47;5454100;26;7145;-63
2024/04/14 12:10:54;;;;;;;;;;;;;;;25.86;38.40;94725.97;5455260;26;7094;-63
2024/04/14 12:13:20;;;;;;;;;;;;;;;25.93;38.54;94725.47;5446209;26;8840;-62
2024/04/14 12:15:49;;;;;;;;;;;;;;;25.98;38.79;94730.22;5456265;26;7681;-62
2024/04/14 12:18:21;;;;;;;;;;;;;;;25.90;38.55;94720.94;5446409;26;7299;-63
2024/04/14 12:20:56;;;;;;;;;;;;;;;25.94;38.56;94721.47;5404802;26;7513;-64
2024/04/14 12:23:23;;;;;;;;;;;;;;;25.92;38.57;94706.69;5449569;26;7940;-63
2024/04/14 12:26:01;;;;;;;;;;;;;;;25.88;38.56;94700.69;5446421;26;7342;-65
2024/04/14 12:28:30;;;;;;;;;;;;;;;25.92;38.40;94701.16;5381341;26;7196;-63
2024/04/14 12:31:28;;;;;;;;;;;;;;;25.97;38.74;94706.66;5441019;26;7178;-63
2024/04/14 12:34:30;;;;;;;;;;;;;;;25.99;38.70;94701.38;5326643;26;7720;-62
2024/04/14 12:36:56;;;;;;;;;;;;;;;25.96;38.83;94696.91;5337592;26;6905;-62
2024/04/14 12:39:23;;;;;;;;;;;;;;;26.03;39.04;94699.09;5352015;26;7316;-61
2024/04/14 12:41:58;;;;;;;;;;;;;;;26.01;38.90;94684.34;5340931;26;7390;-62
2024/04/14 12:44:35;;;;;;;;;;;;;;;26.08;38.80;94686.56;5347282;26;7251;-63
2024/04/14 12:47:02;;;;;;;;;;;;;;;26.05;38.80;94682.84;5338657;26;7381;-62
2024/04/14 12:49:28;;;;;;;;;;;;;;;26.01;39.09;94671.31;5305876;26;7326;-62
2024/04/14 12:51:59;;;;;;;;;;;;;;;26.02;38.70;94667.31;5334126;26;9165;-62
2024/04/14 12:54:27;;;;;;;;;;;;;;;26.05;38.76;94666.31;5306689;26;7203;-63
2024/04/14 12:56:53;;;;;;;;;;;;;;;26.02;38.65;94650.75;5335764;26;7306;-65
2024/04/14 12:59:20;;;;;;;;;;;;;;;26.08;38.59;94646.00;5333286;26;7215;-62
2024/04/14 13:01:46;;;;;;;;;;;;;;;26.05;38.40;94641.50;5333770;26;7395;-62
2024/04/14 13:04:21;;;;;;;;;;;;;;;26.09;38.46;94636.50;5342012;26;7047;-62
2024/04/14 13:06:50;;;;;;;;;;;;;;;26.15;38.63;94637.22;5341093;26;7369;-62
2024/04/14 13:09:16;;;;;;;;;;;;;;;26.14;38.24;94623.94;5383868;26;7325;-62
2024/04/14 13:11:44;;;;;;;;;;;;;;;26.13;38.24;94634.22;5444142;26;8472;-62
2024/04/14 13:14:11;;;;;;;;;;;;;;;26.10;38.13;94613.16;5441066;26;8829;-56
2024/04/14 13:16:37;;;;;;;;;;;;;;;26.16;37.92;94624.19;5454322;26;7220;-57
2024/04/14 13:19:03;;;;;;;;;;;;;;;26.10;37.95;94601.38;5443741;26;7137;-57
2024/04/14 13:21:33;;;;;;;;;;;;;;;26.19;37.78;94614.16;5446492;26;7163;-57
2024/04/14 13:23:59;;;;;;;;;;;;;;;26.15;37.73;94598.59;5414112;26;7751;-57
2024/04/14 13:26:27;;;;;;;;;;;;;;;26.10;37.56;94584.84;5446338;26;7030;-57
2024/04/14 13:28:55;;;;;;;;;;;;;;;26.29;37.60;94598.78;5447079;26;7332;-57
2024/04/14 13:31:24;;;;;;;;;;;;;;;26.26;37.49;94588.75;5445851;26;7041;-57
2024/04/14 13:34:16;;;;;;;;;;;;;;;26.32;37.47;94595.03;5471742;26;7289;-57
2024/04/14 13:36:43;;;;;;;;;;;;;;;26.23;37.67;94581.53;5279728;27;7520;-57
2024/04/14 13:39:26;;;;;;;;;;;;;;;26.31;37.49;94583.22;5259928;27;7286;-57
2024/04/14 13:42:01;;;;;;;;;;;;;;;26.31;37.62;94588.75;5269295;27;7761;-57
2024/04/14 13:44:27;;;;;;;;;;;;;;;26.35;37.48;94571.91;5266705;27;7724;-57